Ana Sayfa
METAR-TAF:

METAR-TAF

Havaalanları :

York Airport

York, Pensilvanya, Amerika Birleşik Devletleri

Enlem: 39-55-10N, Boylam: 076-52-37W, yükseklik: 146 m

Güncel hava durumu gözlemi

Rapor saat 04:01 UTC de 52 dakika önce yapıldı.
Rüzgar kuzeydan 6 kt
Sıcaklık 20°C
Nem 94%
Basınç 1009 hPa
Görüş mesafesi: 16.1 km
2100 ft yükseklikte az bulutlu
3100 ft yükseklikte çok bulutlu

METAR: KTHV 230401Z AUTO 36006KT 10SM FEW021 OVC031 20/19 A2981 RMK AO2 P0001 T02000189

Saat: 00:53 (04:53 UTC)


TAF: eksik

4.000'den fazla havaalanı için hava durumu gözlemleri ve tahminleri (METAR ve TAF raporları).

Kullanılabilir istasyonlar harita üzerinde sarı ve kırmızı noktalarla gösterilir.

İstasyonun adını görmek için fareyi noktanın üzerinde gezdirin.

Sonrasında hava gözlem ve tahminlerini görmek için tıklayın.

Haritayı değiştirmek için: yaklaştırmak için siyah artı işaretli yeşil düğmeye ve uzaklaştırmak için de eksi işaretli düğmeye hızla tıklayın; bitişik haritalar için yeşil okları kullanın.


METAR-TAF: